sensor_id;sensor_type;location;lat;lon;timestamp;P1;durP1;ratioP1;P2;durP2;ratioP2
7563;SDS011;3823;53.586;10.040;2023-04-24T04:01:14;2.33;;;1.83;;
7563;SDS011;3823;53.586;10.040;2023-04-24T04:03:40;5.65;;;2.67;;
7563;SDS011;3823;53.586;10.040;2023-04-24T04:06:06;3.10;;;2.90;;
7563;SDS011;3823;53.586;10.040;2023-04-24T04:08:32;2.28;;;2.17;;
7563;SDS011;3823;53.586;10.040;2023-04-24T04:10:57;2.95;;;2.03;;
7563;SDS011;3823;53.586;10.040;2023-04-24T04:13:23;2.10;;;2.00;;
7563;SDS011;3823;53.586;10.040;2023-04-24T04:15:48;2.20;;;2.10;;
7563;SDS011;3823;53.586;10.040;2023-04-24T04:18:14;2.15;;;2.00;;
7563;SDS011;3823;53.586;10.040;2023-04-24T04:20:40;2.38;;;2.17;;
7563;SDS011;3823;53.586;10.040;2023-04-24T04:23:06;2.00;;;1.58;;
7563;SDS011;3823;53.586;10.040;2023-04-24T04:25:31;1.80;;;1.70;;
7563;SDS011;3823;53.586;10.040;2023-04-24T04:27:57;2.05;;;1.80;;
7563;SDS011;3823;53.586;10.040;2023-04-24T04:30:24;1.60;;;1.50;;
7563;SDS011;3823;53.586;10.040;2023-04-24T04:32:50;2.17;;;2.08;;
7563;SDS011;3823;53.586;10.040;2023-04-24T04:35:16;1.83;;;1.73;;
7563;SDS011;3823;53.586;10.040;2023-04-24T04:37:42;2.60;;;1.70;;
7563;SDS011;3823;53.586;10.040;2023-04-24T04:40:08;1.80;;;1.70;;
7563;SDS011;3823;53.586;10.040;2023-04-24T04:42:36;1.50;;;1.40;;
7563;SDS011;3823;53.586;10.040;2023-04-24T04:45:06;2.15;;;1.85;;
7563;SDS011;3823;53.586;10.040;2023-04-24T04:47:33;3.05;;;1.35;;
7563;SDS011;3823;53.586;10.040;2023-04-24T04:49:59;1.55;;;1.45;;
7563;SDS011;3823;53.586;10.040;2023-04-24T04:52:26;4.43;;;1.50;;
7563;SDS011;3823;53.586;10.040;2023-04-24T04:54:52;1.52;;;1.42;;
7563;SDS011;3823;53.586;10.040;2023-04-24T04:57:17;1.73;;;1.60;;
7563;SDS011;3823;53.586;10.040;2023-04-24T04:59:43;1.63;;;1.52;;
7563;SDS011;3823;53.586;10.040;2023-04-24T05:02:09;1.60;;;1.48;;
7563;SDS011;3823;53.586;10.040;2023-04-24T05:04:34;2.03;;;1.92;;
7563;SDS011;3823;53.586;10.040;2023-04-24T05:07:00;1.52;;;1.42;;
7563;SDS011;3823;53.586;10.040;2023-04-24T05:09:25;1.67;;;1.58;;
7563;SDS011;3823;53.586;10.040;2023-04-24T05:11:52;1.75;;;1.65;;
7563;SDS011;3823;53.586;10.040;2023-04-24T05:14:18;1.45;;;1.35;;
7563;SDS011;3823;53.586;10.040;2023-04-24T05:16:44;1.95;;;1.60;;
7563;SDS011;3823;53.586;10.040;2023-04-24T05:19:10;1.85;;;1.75;;
7563;SDS011;3823;53.586;10.040;2023-04-24T05:21:36;2.95;;;2.20;;
7563;SDS011;3823;53.586;10.040;2023-04-24T05:24:04;1.67;;;1.58;;
7563;SDS011;3823;53.586;10.040;2023-04-24T05:26:30;1.98;;;1.77;;
7563;SDS011;3823;53.586;10.040;2023-04-24T05:28:55;2.13;;;1.92;;
7563;SDS011;3823;53.586;10.040;2023-04-24T05:31:21;2.95;;;1.48;;
7563;SDS011;3823;53.586;10.040;2023-04-24T05:33:46;1.80;;;1.30;;
7563;SDS011;3823;53.586;10.040;2023-04-24T05:36:12;1.73;;;1.60;;
7563;SDS011;3823;53.586;10.040;2023-04-24T05:38:38;7.88;;;2.65;;
7563;SDS011;3823;53.586;10.040;2023-04-24T05:41:03;2.45;;;1.65;;
7563;SDS011;3823;53.586;10.040;2023-04-24T05:43:29;1.60;;;1.40;;
7563;SDS011;3823;53.586;10.040;2023-04-24T05:45:55;2.92;;;1.48;;
7563;SDS011;3823;53.586;10.040;2023-04-24T05:48:20;2.47;;;1.40;;
7563;SDS011;3823;53.586;10.040;2023-04-24T05:50:47;1.48;;;1.38;;
7563;SDS011;3823;53.586;10.040;2023-04-24T05:53:13;1.60;;;1.30;;
7563;SDS011;3823;53.586;10.040;2023-04-24T05:55:39;2.42;;;1.65;;
7563;SDS011;3823;53.586;10.040;2023-04-24T05:58:04;2.15;;;1.88;;
7563;SDS011;3823;53.586;10.040;2023-04-24T06:00:30;1.60;;;1.50;;
7563;SDS011;3823;53.586;10.040;2023-04-24T06:02:56;2.00;;;1.40;;
7563;SDS011;3823;53.586;10.040;2023-04-24T06:05:22;1.90;;;1.70;;
7563;SDS011;3823;53.586;10.040;2023-04-24T06:07:48;2.45;;;1.52;;
7563;SDS011;3823;53.586;10.040;2023-04-24T06:10:13;1.73;;;1.63;;
7563;SDS011;3823;53.586;10.040;2023-04-24T06:12:39;5.20;;;1.90;;
7563;SDS011;3823;53.586;10.040;2023-04-24T06:15:04;1.63;;;1.52;;
7563;SDS011;3823;53.586;10.040;2023-04-24T06:17:31;1.40;;;1.30;;
7563;SDS011;3823;53.586;10.040;2023-04-24T06:19:57;1.60;;;1.38;;
7563;SDS011;3823;53.586;10.040;2023-04-24T06:22:22;1.92;;;1.52;;
7563;SDS011;3823;53.586;10.040;2023-04-24T06:24:48;2.38;;;1.40;;
7563;SDS011;3823;53.586;10.040;2023-04-24T06:27:14;4.63;;;1.88;;
7563;SDS011;3823;53.586;10.040;2023-04-24T06:29:39;2.78;;;1.48;;
7563;SDS011;3823;53.586;10.040;2023-04-24T06:32:05;6.28;;;1.23;;
7563;SDS011;3823;53.586;10.040;2023-04-24T06:34:30;2.35;;;1.60;;
7563;SDS011;3823;53.586;10.040;2023-04-24T06:36:57;1.33;;;1.23;;
7563;SDS011;3823;53.586;10.040;2023-04-24T06:39:23;1.92;;;1.40;;
7563;SDS011;3823;53.586;10.040;2023-04-24T06:41:48;3.40;;;1.23;;
7563;SDS011;3823;53.586;10.040;2023-04-24T06:44:14;2.95;;;1.30;;
7563;SDS011;3823;53.586;10.040;2023-04-24T06:46:40;1.55;;;1.30;;
7563;SDS011;3823;53.586;10.040;2023-04-24T06:49:06;1.52;;;1.20;;
7563;SDS011;3823;53.586;10.040;2023-04-24T06:51:32;1.48;;;1.38;;
7563;SDS011;3823;53.586;10.040;2023-04-24T06:53:58;2.10;;;1.92;;
7563;SDS011;3823;53.586;10.040;2023-04-24T06:56:24;2.58;;;2.00;;
7563;SDS011;3823;53.586;10.040;2023-04-24T06:58:50;1.92;;;1.75;;
7563;SDS011;3823;53.586;10.040;2023-04-24T07:01:16;1.80;;;1.70;;
7563;SDS011;3823;53.586;10.040;2023-04-24T07:03:42;2.33;;;2.13;;
7563;SDS011;3823;53.586;10.040;2023-04-24T07:06:08;3.95;;;2.00;;
7563;SDS011;3823;53.586;10.040;2023-04-24T07:08:36;2.35;;;1.75;;
7563;SDS011;3823;53.586;10.040;2023-04-24T07:11:02;4.88;;;2.70;;
7563;SDS011;3823;53.586;10.040;2023-04-24T07:13:27;2.15;;;1.95;;
7563;SDS011;3823;53.586;10.040;2023-04-24T07:15:53;2.35;;;2.15;;
7563;SDS011;3823;53.586;10.040;2023-04-24T07:18:20;2.60;;;2.40;;
7563;SDS011;3823;53.586;10.040;2023-04-24T07:20:46;2.40;;;2.25;;
7563;SDS011;3823;53.586;10.040;2023-04-24T07:23:12;2.88;;;2.67;;
7563;SDS011;3823;53.586;10.040;2023-04-24T07:25:37;2.80;;;2.60;;
7563;SDS011;3823;53.586;10.040;2023-04-24T07:28:04;2.60;;;2.40;;
7563;SDS011;3823;53.586;10.040;2023-04-24T07:30:30;2.45;;;2.25;;
7563;SDS011;3823;53.586;10.040;2023-04-24T07:32:57;3.05;;;2.80;;
7563;SDS011;3823;53.586;10.040;2023-04-24T07:35:23;2.35;;;2.25;;
7563;SDS011;3823;53.586;10.040;2023-04-24T07:37:50;2.88;;;2.67;;
7563;SDS011;3823;53.586;10.040;2023-04-24T07:40:17;3.67;;;2.88;;
7563;SDS011;3823;53.586;10.040;2023-04-24T07:42:43;2.95;;;2.75;;
7563;SDS011;3823;53.586;10.040;2023-04-24T07:45:09;2.83;;;2.50;;
7563;SDS011;3823;53.586;10.040;2023-04-24T07:47:34;3.10;;;2.90;;
7563;SDS011;3823;53.586;10.040;2023-04-24T07:50:02;3.65;;;3.45;;
7563;SDS011;3823;53.586;10.040;2023-04-24T07:52:27;3.58;;;3.28;;
7563;SDS011;3823;53.586;10.040;2023-04-24T07:54:54;3.50;;;3.30;;
7563;SDS011;3823;53.586;10.040;2023-04-24T07:57:23;3.75;;;3.55;;
7563;SDS011;3823;53.586;10.040;2023-04-24T07:59:50;3.75;;;3.45;;
7563;SDS011;3823;53.586;10.040;2023-04-24T08:02:15;4.00;;;3.70;;
7563;SDS011;3823;53.586;10.040;2023-04-24T08:04:41;4.70;;;4.03;;
7563;SDS011;3823;53.586;10.040;2023-04-24T08:07:07;4.00;;;3.75;;
7563;SDS011;3823;53.586;10.040;2023-04-24T08:09:33;3.50;;;3.30;;
7563;SDS011;3823;53.586;10.040;2023-04-24T08:11:58;4.70;;;4.40;;
7563;SDS011;3823;53.586;10.040;2023-04-24T08:14:24;4.47;;;4.15;;
7563;SDS011;3823;53.586;10.040;2023-04-24T08:16:50;4.90;;;4.50;;
7563;SDS011;3823;53.586;10.040;2023-04-24T08:19:17;4.95;;;4.65;;
7563;SDS011;3823;53.586;10.040;2023-04-24T08:21:43;5.75;;;5.25;;
7563;SDS011;3823;53.586;10.040;2023-04-24T08:24:08;4.60;;;4.30;;
7563;SDS011;3823;53.586;10.040;2023-04-24T08:26:34;7.00;;;5.05;;
7563;SDS011;3823;53.586;10.040;2023-04-24T08:28:59;5.28;;;4.88;;
7563;SDS011;3823;53.586;10.040;2023-04-24T08:31:25;5.00;;;4.65;;
7563;SDS011;3823;53.586;10.040;2023-04-24T08:33:51;5.18;;;4.57;;
7563;SDS011;3823;53.586;10.040;2023-04-24T08:36:16;5.10;;;4.70;;
7563;SDS011;3823;53.586;10.040;2023-04-24T08:38:42;4.43;;;4.15;;
7563;SDS011;3823;53.586;10.040;2023-04-24T08:41:07;4.90;;;4.50;;
7563;SDS011;3823;53.586;10.040;2023-04-24T08:43:35;4.72;;;4.32;;
7563;SDS011;3823;53.586;10.040;2023-04-24T08:46:03;5.15;;;4.75;;
7563;SDS011;3823;53.586;10.040;2023-04-24T08:48:29;5.40;;;5.00;;
7563;SDS011;3823;53.586;10.040;2023-04-24T08:50:56;4.53;;;4.22;;
7563;SDS011;3823;53.586;10.040;2023-04-24T08:53:22;5.90;;;5.40;;
7563;SDS011;3823;53.586;10.040;2023-04-24T08:55:50;6.10;;;5.50;;
7563;SDS011;3823;53.586;10.040;2023-04-24T08:58:16;5.75;;;5.20;;
7563;SDS011;3823;53.586;10.040;2023-04-24T09:00:43;5.93;;;5.43;;
7563;SDS011;3823;53.586;10.040;2023-04-24T09:03:12;5.70;;;5.20;;
7563;SDS011;3823;53.586;10.040;2023-04-24T09:05:46;6.55;;;5.93;;
7563;SDS011;3823;53.586;10.040;2023-04-24T09:08:12;6.35;;;5.75;;
7563;SDS011;3823;53.586;10.040;2023-04-24T09:10:39;6.30;;;5.80;;
7563;SDS011;3823;53.586;10.040;2023-04-24T09:13:05;5.97;;;5.47;;
7563;SDS011;3823;53.586;10.040;2023-04-24T09:15:34;6.50;;;5.90;;
7563;SDS011;3823;53.586;10.040;2023-04-24T09:18:00;6.18;;;5.68;;
7563;SDS011;3823;53.586;10.040;2023-04-24T09:20:26;6.47;;;5.88;;
7563;SDS011;3823;53.586;10.040;2023-04-24T09:22:55;5.15;;;4.75;;
7563;SDS011;3823;53.586;10.040;2023-04-24T09:25:22;7.00;;;6.40;;
7563;SDS011;3823;53.586;10.040;2023-04-24T09:27:59;7.40;;;6.70;;
7563;SDS011;3823;53.586;10.040;2023-04-24T09:30:28;5.45;;;5.05;;
7563;SDS011;3823;53.586;10.040;2023-04-24T09:33:28;6.68;;;6.07;;
7563;SDS011;3823;53.586;10.040;2023-04-24T09:35:52;4.78;;;4.47;;
7563;SDS011;3823;53.586;10.040;2023-04-24T09:38:18;5.20;;;4.80;;
7563;SDS011;3823;53.586;10.040;2023-04-24T09:40:45;5.65;;;5.25;;
7563;SDS011;3823;53.586;10.040;2023-04-24T09:43:11;5.50;;;5.10;;
7563;SDS011;3823;53.586;10.040;2023-04-24T09:45:37;5.40;;;5.00;;
7563;SDS011;3823;53.586;10.040;2023-04-24T09:48:04;6.78;;;5.43;;
7563;SDS011;3823;53.586;10.040;2023-04-24T09:50:31;6.20;;;5.70;;
7563;SDS011;3823;53.586;10.040;2023-04-24T09:53:00;6.30;;;5.72;;
7563;SDS011;3823;53.586;10.040;2023-04-24T09:55:27;6.20;;;5.70;;
7563;SDS011;3823;53.586;10.040;2023-04-24T09:57:56;7.38;;;6.10;;
7563;SDS011;3823;53.586;10.040;2023-04-24T10:00:26;5.80;;;5.30;;
7563;SDS011;3823;53.586;10.040;2023-04-24T10:02:57;5.97;;;5.30;;
7563;SDS011;3823;53.586;10.040;2023-04-24T10:05:27;6.50;;;6.00;;
7563;SDS011;3823;53.586;10.040;2023-04-24T10:10:28;6.50;;;6.00;;
7563;SDS011;3823;53.586;10.040;2023-04-24T10:12:55;7.13;;;6.45;;
7563;SDS011;3823;53.586;10.040;2023-04-24T10:15:21;6.38;;;5.88;;
7563;SDS011;3823;53.586;10.040;2023-04-24T10:17:47;6.32;;;5.82;;
7563;SDS011;3823;53.586;10.040;2023-04-24T10:20:18;9.02;;;6.28;;
7563;SDS011;3823;53.586;10.040;2023-04-24T10:22:51;7.55;;;6.85;;
7563;SDS011;3823;53.586;10.040;2023-04-24T10:25:21;9.93;;;7.03;;
7563;SDS011;3823;53.586;10.040;2023-04-24T10:27:52;8.98;;;7.82;;
7563;SDS011;3823;53.586;10.040;2023-04-24T10:30:22;11.50;;;8.13;;
7563;SDS011;3823;53.586;10.040;2023-04-24T10:32:47;8.68;;;7.68;;
7563;SDS011;3823;53.586;10.040;2023-04-24T10:35:13;8.20;;;7.40;;
7563;SDS011;3823;53.586;10.040;2023-04-24T10:37:42;9.50;;;8.38;;
7563;SDS011;3823;53.586;10.040;2023-04-24T10:40:10;9.98;;;7.63;;
7563;SDS011;3823;53.586;10.040;2023-04-24T10:42:40;11.48;;;8.65;;
7563;SDS011;3823;53.586;10.040;2023-04-24T10:45:15;10.57;;;9.52;;
7563;SDS011;3823;53.586;10.040;2023-04-24T10:47:42;9.07;;;8.18;;
7563;SDS011;3823;53.586;10.040;2023-04-24T10:50:16;8.73;;;7.82;;
7563;SDS011;3823;53.586;10.040;2023-04-24T10:52:48;10.45;;;9.45;;
7563;SDS011;3823;53.586;10.040;2023-04-24T10:58:04;9.85;;;8.60;;
7563;SDS011;3823;53.586;10.040;2023-04-24T11:00:30;14.68;;;8.98;;
7563;SDS011;3823;53.586;10.040;2023-04-24T11:02:56;14.45;;;9.93;;
7563;SDS011;3823;53.586;10.040;2023-04-24T11:05:22;11.07;;;9.68;;
7563;SDS011;3823;53.586;10.040;2023-04-24T11:08:15;15.77;;;9.05;;
7563;SDS011;3823;53.586;10.040;2023-04-24T11:14:00;13.60;;;10.05;;
7563;SDS011;3823;53.586;10.040;2023-04-24T11:16:28;9.68;;;8.68;;
7563;SDS011;3823;53.586;10.040;2023-04-24T11:19:01;8.98;;;7.78;;
7563;SDS011;3823;53.586;10.040;2023-04-24T11:21:38;15.57;;;9.40;;
7563;SDS011;3823;53.586;10.040;2023-04-24T11:32:15;10.75;;;8.82;;
7563;SDS011;3823;53.586;10.040;2023-04-24T11:34:48;12.57;;;9.85;;
7563;SDS011;3823;53.586;10.040;2023-04-24T11:37:14;12.43;;;9.35;;
7563;SDS011;3823;53.586;10.040;2023-04-24T11:39:40;14.45;;;10.10;;
7563;SDS011;3823;53.586;10.040;2023-04-24T11:42:06;12.35;;;8.88;;
7563;SDS011;3823;53.586;10.040;2023-04-24T11:44:33;10.57;;;9.18;;
7563;SDS011;3823;53.586;10.040;2023-04-24T11:46:59;10.43;;;9.35;;
7563;SDS011;3823;53.586;10.040;2023-04-24T11:49:25;14.98;;;8.80;;
7563;SDS011;3823;53.586;10.040;2023-04-24T11:51:50;9.60;;;8.60;;
7563;SDS011;3823;53.586;10.040;2023-04-24T11:54:20;8.50;;;7.60;;
7563;SDS011;3823;53.586;10.040;2023-04-24T11:56:46;9.07;;;8.13;;
7563;SDS011;3823;53.586;10.040;2023-04-24T11:59:12;9.00;;;7.40;;
7563;SDS011;3823;53.586;10.040;2023-04-24T12:01:47;9.40;;;6.80;;
7563;SDS011;3823;53.586;10.040;2023-04-24T12:04:14;8.23;;;6.50;;
7563;SDS011;3823;53.586;10.040;2023-04-24T12:06:40;9.63;;;7.63;;
7563;SDS011;3823;53.586;10.040;2023-04-24T12:09:23;7.75;;;6.95;;
7563;SDS011;3823;53.586;10.040;2023-04-24T12:11:53;11.75;;;7.25;;
7563;SDS011;3823;53.586;10.040;2023-04-24T12:14:23;7.20;;;6.35;;
7563;SDS011;3823;53.586;10.040;2023-04-24T12:16:52;6.15;;;5.65;;
7563;SDS011;3823;53.586;10.040;2023-04-24T12:19:21;9.52;;;6.35;;
7563;SDS011;3823;53.586;10.040;2023-04-24T12:22:00;8.05;;;6.47;;
7563;SDS011;3823;53.586;10.040;2023-04-24T12:24:27;9.88;;;8.55;;
7563;SDS011;3823;53.586;10.040;2023-04-24T12:26:52;7.90;;;7.10;;
7563;SDS011;3823;53.586;10.040;2023-04-24T12:29:21;7.68;;;6.97;;
7563;SDS011;3823;53.586;10.040;2023-04-24T12:31:47;8.75;;;6.18;;
7563;SDS011;3823;53.586;10.040;2023-04-24T12:34:22;7.50;;;6.70;;
7563;SDS011;3823;53.586;10.040;2023-04-24T12:36:49;7.10;;;6.40;;
7563;SDS011;3823;53.586;10.040;2023-04-24T12:39:16;8.02;;;7.32;;
7563;SDS011;3823;53.586;10.040;2023-04-24T12:41:54;7.88;;;6.40;;
7563;SDS011;3823;53.586;10.040;2023-04-24T12:44:28;8.38;;;6.32;;
7563;SDS011;3823;53.586;10.040;2023-04-24T12:46:59;8.18;;;6.90;;
7563;SDS011;3823;53.586;10.040;2023-04-24T12:49:25;7.18;;;6.38;;
7563;SDS011;3823;53.586;10.040;2023-04-24T12:51:51;8.13;;;5.88;;
7563;SDS011;3823;53.586;10.040;2023-04-24T12:54:16;6.90;;;6.20;;
7563;SDS011;3823;53.586;10.040;2023-04-24T12:56:42;7.28;;;6.57;;
7563;SDS011;3823;53.586;10.040;2023-04-24T12:59:07;7.65;;;6.95;;
7563;SDS011;3823;53.586;10.040;2023-04-24T13:01:33;7.05;;;6.45;;
7563;SDS011;3823;53.586;10.040;2023-04-24T13:03:58;7.50;;;6.78;;
7563;SDS011;3823;53.586;10.040;2023-04-24T13:06:24;8.43;;;6.45;;
7563;SDS011;3823;53.586;10.040;2023-04-24T13:08:51;13.73;;;8.40;;
7563;SDS011;3823;53.586;10.040;2023-04-24T13:11:17;12.10;;;7.90;;
7563;SDS011;3823;53.586;10.040;2023-04-24T13:13:42;7.03;;;6.32;;
7563;SDS011;3823;53.586;10.040;2023-04-24T13:16:08;9.30;;;7.10;;
7563;SDS011;3823;53.586;10.040;2023-04-24T13:18:34;7.97;;;7.28;;
7563;SDS011;3823;53.586;10.040;2023-04-24T13:21:00;6.65;;;6.03;;
7563;SDS011;3823;53.586;10.040;2023-04-24T13:23:25;8.88;;;7.07;;
7563;SDS011;3823;53.586;10.040;2023-04-24T13:25:51;7.10;;;6.40;;
7563;SDS011;3823;53.586;10.040;2023-04-24T13:28:17;7.55;;;6.60;;
7563;SDS011;3823;53.586;10.040;2023-04-24T13:30:43;6.50;;;5.93;;
7563;SDS011;3823;53.586;10.040;2023-04-24T13:33:08;6.60;;;6.00;;
7563;SDS011;3823;53.586;10.040;2023-04-24T13:35:34;7.68;;;6.97;;
7563;SDS011;3823;53.586;10.040;2023-04-24T13:37:59;7.43;;;6.70;;
7563;SDS011;3823;53.586;10.040;2023-04-24T13:40:26;9.18;;;7.05;;
7563;SDS011;3823;53.586;10.040;2023-04-24T13:42:52;7.90;;;7.20;;
7563;SDS011;3823;53.586;10.040;2023-04-24T13:45:17;6.30;;;5.82;;
7563;SDS011;3823;53.586;10.040;2023-04-24T13:47:43;6.53;;;6.00;;
7563;SDS011;3823;53.586;10.040;2023-04-24T13:50:09;6.68;;;6.03;;
7563;SDS011;3823;53.586;10.040;2023-04-24T13:52:35;6.20;;;5.32;;
7563;SDS011;3823;53.586;10.040;2023-04-24T13:55:00;7.00;;;6.43;;
7563;SDS011;3823;53.586;10.040;2023-04-24T13:57:26;6.03;;;5.53;;
7563;SDS011;3823;53.586;10.040;2023-04-24T13:59:53;6.30;;;5.80;;
7563;SDS011;3823;53.586;10.040;2023-04-24T14:02:20;7.55;;;6.22;;
7563;SDS011;3823;53.586;10.040;2023-04-24T14:04:46;5.43;;;4.88;;
7563;SDS011;3823;53.586;10.040;2023-04-24T14:07:13;6.13;;;5.53;;
7563;SDS011;3823;53.586;10.040;2023-04-24T14:09:38;6.22;;;5.72;;
7563;SDS011;3823;53.586;10.040;2023-04-24T14:12:04;5.68;;;5.18;;
7563;SDS011;3823;53.586;10.040;2023-04-24T14:14:30;7.45;;;6.18;;
7563;SDS011;3823;53.586;10.040;2023-04-24T14:16:56;6.30;;;5.80;;
7563;SDS011;3823;53.586;10.040;2023-04-24T14:19:22;6.18;;;5.68;;
7563;SDS011;3823;53.586;10.040;2023-04-24T14:21:47;5.68;;;5.18;;
7563;SDS011;3823;53.586;10.040;2023-04-24T14:24:13;5.20;;;4.80;;
7563;SDS011;3823;53.586;10.040;2023-04-24T14:26:38;4.97;;;4.63;;
7563;SDS011;3823;53.586;10.040;2023-04-24T14:29:04;6.18;;;5.68;;
7563;SDS011;3823;53.586;10.040;2023-04-24T14:31:31;5.70;;;5.20;;
7563;SDS011;3823;53.586;10.040;2023-04-24T14:33:56;5.63;;;5.22;;
7563;SDS011;3823;53.586;10.040;2023-04-24T14:36:22;5.53;;;5.07;;
7563;SDS011;3823;53.586;10.040;2023-04-24T14:38:48;4.60;;;4.30;;
7563;SDS011;3823;53.586;10.040;2023-04-24T14:41:14;5.18;;;4.32;;
7563;SDS011;3823;53.586;10.040;2023-04-24T14:43:39;4.43;;;4.13;;
7563;SDS011;3823;53.586;10.040;2023-04-24T14:46:05;5.55;;;5.07;;
7563;SDS011;3823;53.586;10.040;2023-04-24T14:48:31;6.90;;;6.20;;
7563;SDS011;3823;53.586;10.040;2023-04-24T14:50:56;8.13;;;7.07;;
7563;SDS011;3823;53.586;10.040;2023-04-24T14:53:22;7.60;;;6.60;;
7563;SDS011;3823;53.586;10.040;2023-04-24T14:55:47;7.72;;;7.00;;
7563;SDS011;3823;53.586;10.040;2023-04-24T14:58:13;8.45;;;7.10;;
7563;SDS011;3823;53.586;10.040;2023-04-24T15:00:39;8.50;;;7.30;;
7563;SDS011;3823;53.586;10.040;2023-04-24T15:03:04;12.90;;;7.85;;
7563;SDS011;3823;53.586;10.040;2023-04-24T15:05:30;8.45;;;7.53;;
7563;SDS011;3823;53.586;10.040;2023-04-24T15:07:55;8.55;;;7.72;;
7563;SDS011;3823;53.586;10.040;2023-04-24T15:10:21;8.13;;;7.32;;
7563;SDS011;3823;53.586;10.040;2023-04-24T15:12:48;8.02;;;7.00;;
7563;SDS011;3823;53.586;10.040;2023-04-24T15:15:13;6.75;;;6.05;;
7563;SDS011;3823;53.586;10.040;2023-04-24T15:17:39;6.47;;;5.93;;
7563;SDS011;3823;53.586;10.040;2023-04-24T15:20:06;7.25;;;6.28;;
7563;SDS011;3823;53.586;10.040;2023-04-24T15:22:32;5.72;;;5.15;;
7563;SDS011;3823;53.586;10.040;2023-04-24T15:24:58;5.43;;;4.93;;
7563;SDS011;3823;53.586;10.040;2023-04-24T15:27:23;5.95;;;5.38;;
7563;SDS011;3823;53.586;10.040;2023-04-24T15:29:49;3.50;;;3.30;;
7563;SDS011;3823;53.586;10.040;2023-04-24T15:32:15;4.55;;;4.10;;
7563;SDS011;3823;53.586;10.040;2023-04-24T15:34:40;2.42;;;2.17;;
7563;SDS011;3823;53.586;10.040;2023-04-24T15:37:06;2.83;;;2.60;;
7563;SDS011;3823;53.586;10.040;2023-04-24T15:39:31;2.30;;;2.13;;
7563;SDS011;3823;53.586;10.040;2023-04-24T15:41:57;2.40;;;2.20;;
7563;SDS011;3823;53.586;10.040;2023-04-24T15:44:22;2.42;;;1.90;;
7563;SDS011;3823;53.586;10.040;2023-04-24T15:46:48;2.05;;;1.85;;
7563;SDS011;3823;53.586;10.040;2023-04-24T15:49:13;1.85;;;1.65;;
7563;SDS011;3823;53.586;10.040;2023-04-24T15:51:39;3.35;;;3.15;;
7563;SDS011;3823;53.586;10.040;2023-04-24T15:54:05;4.25;;;3.85;;
7563;SDS011;3823;53.586;10.040;2023-04-24T15:56:30;6.50;;;4.22;;
7563;SDS011;3823;53.586;10.040;2023-04-24T15:58:56;5.78;;;4.88;;
7563;SDS011;3823;53.586;10.040;2023-04-24T16:01:22;7.47;;;5.68;;
7563;SDS011;3823;53.586;10.040;2023-04-24T16:03:47;7.85;;;6.00;;
7563;SDS011;3823;53.586;10.040;2023-04-24T16:06:13;8.63;;;7.65;;
7563;SDS011;3823;53.586;10.040;2023-04-24T16:08:38;8.75;;;6.38;;
7563;SDS011;3823;53.586;10.040;2023-04-24T16:11:04;7.90;;;6.53;;
7563;SDS011;3823;53.586;10.040;2023-04-24T16:13:30;10.52;;;6.70;;
7563;SDS011;3823;53.586;10.040;2023-04-24T16:15:56;9.85;;;7.88;;
7563;SDS011;3823;53.586;10.040;2023-04-24T16:18:21;14.25;;;7.28;;
7563;SDS011;3823;53.586;10.040;2023-04-24T16:20:47;7.35;;;6.53;;
7563;SDS011;3823;53.586;10.040;2023-04-24T16:23:12;6.35;;;5.53;;
7563;SDS011;3823;53.586;10.040;2023-04-24T16:25:39;7.38;;;5.55;;
7563;SDS011;3823;53.586;10.040;2023-04-24T16:28:05;5.93;;;5.38;;
7563;SDS011;3823;53.586;10.040;2023-04-24T16:30:31;7.72;;;5.28;;
7563;SDS011;3823;53.586;10.040;2023-04-24T16:32:56;5.10;;;4.60;;
7563;SDS011;3823;53.586;10.040;2023-04-24T16:35:22;4.15;;;3.63;;
7563;SDS011;3823;53.586;10.040;2023-04-24T16:37:47;3.75;;;3.45;;
7563;SDS011;3823;53.586;10.040;2023-04-24T16:40:13;4.20;;;3.80;;
7563;SDS011;3823;53.586;10.040;2023-04-24T16:42:38;4.38;;;3.08;;
7563;SDS011;3823;53.586;10.040;2023-04-24T16:45:04;3.40;;;3.15;;
7563;SDS011;3823;53.586;10.040;2023-04-24T16:47:30;2.88;;;2.67;;
7563;SDS011;3823;53.586;10.040;2023-04-24T16:49:56;3.45;;;2.85;;
7563;SDS011;3823;53.586;10.040;2023-04-24T16:52:22;7.30;;;3.72;;
7563;SDS011;3823;53.586;10.040;2023-04-24T16:54:47;3.38;;;3.08;;
7563;SDS011;3823;53.586;10.040;2023-04-24T16:57:13;4.03;;;3.35;;
7563;SDS011;3823;53.586;10.040;2023-04-24T16:59:39;3.88;;;3.22;;
7563;SDS011;3823;53.586;10.040;2023-04-24T17:02:05;5.70;;;3.72;;
7563;SDS011;3823;53.586;10.040;2023-04-24T17:04:30;3.45;;;2.78;;
7563;SDS011;3823;53.586;10.040;2023-04-24T17:06:59;3.95;;;3.53;;
7563;SDS011;3823;53.586;10.040;2023-04-24T17:09:25;5.28;;;4.13;;
7563;SDS011;3823;53.586;10.040;2023-04-24T17:11:50;4.10;;;3.60;;
7563;SDS011;3823;53.586;10.040;2023-04-24T17:14:16;5.28;;;4.38;;
7563;SDS011;3823;53.586;10.040;2023-04-24T17:16:41;3.72;;;3.42;;
7563;SDS011;3823;53.586;10.040;2023-04-24T17:19:09;3.90;;;3.60;;
7563;SDS011;3823;53.586;10.040;2023-04-24T17:21:35;4.15;;;3.75;;
7563;SDS011;3823;53.586;10.040;2023-04-24T17:24:01;4.35;;;3.95;;
7563;SDS011;3823;53.586;10.040;2023-04-24T17:26:27;5.38;;;3.88;;
7563;SDS011;3823;53.586;10.040;2023-04-24T17:28:53;4.80;;;4.40;;
7563;SDS011;3823;53.586;10.040;2023-04-24T17:31:19;4.22;;;3.83;;
7563;SDS011;3823;53.586;10.040;2023-04-24T17:33:45;4.63;;;4.15;;
7563;SDS011;3823;53.586;10.040;2023-04-24T17:36:10;4.57;;;3.95;;
7563;SDS011;3823;53.586;10.040;2023-04-24T17:38:36;5.20;;;4.57;;
7563;SDS011;3823;53.586;10.040;2023-04-24T17:41:02;9.73;;;5.03;;
7563;SDS011;3823;53.586;10.040;2023-04-24T17:43:27;5.43;;;4.93;;
7563;SDS011;3823;53.586;10.040;2023-04-24T17:45:53;6.32;;;4.72;;
7563;SDS011;3823;53.586;10.040;2023-04-24T17:48:20;5.53;;;4.63;;
7563;SDS011;3823;53.586;10.040;2023-04-24T17:50:46;7.43;;;4.88;;
7563;SDS011;3823;53.586;10.040;2023-04-24T17:53:13;5.95;;;5.32;;
7563;SDS011;3823;53.586;10.040;2023-04-24T17:55:38;10.20;;;5.13;;
7563;SDS011;3823;53.586;10.040;2023-04-24T17:58:05;6.35;;;4.93;;
7563;SDS011;3823;53.586;10.040;2023-04-24T18:00:31;5.78;;;5.25;;
7563;SDS011;3823;53.586;10.040;2023-04-24T18:02:57;5.55;;;5.00;;
7563;SDS011;3823;53.586;10.040;2023-04-24T18:05:34;8.25;;;5.07;;
7563;SDS011;3823;53.586;10.040;2023-04-24T18:08:01;6.43;;;5.65;;
7563;SDS011;3823;53.586;10.040;2023-04-24T18:10:27;8.93;;;5.38;;
7563;SDS011;3823;53.586;10.040;2023-04-24T18:12:55;7.70;;;5.30;;
7563;SDS011;3823;53.586;10.040;2023-04-24T18:15:21;8.60;;;5.25;;
7563;SDS011;3823;53.586;10.040;2023-04-24T18:17:47;6.28;;;4.78;;
7563;SDS011;3823;53.586;10.040;2023-04-24T18:20:13;7.50;;;5.45;;
7563;SDS011;3823;53.586;10.040;2023-04-24T18:22:40;5.45;;;4.68;;
7563;SDS011;3823;53.586;10.040;2023-04-24T18:25:06;5.60;;;4.82;;
7563;SDS011;3823;53.586;10.040;2023-04-24T18:27:33;6.65;;;5.10;;
7563;SDS011;3823;53.586;10.040;2023-04-24T18:29:59;10.73;;;4.75;;
7563;SDS011;3823;53.586;10.040;2023-04-24T18:32:26;4.70;;;3.75;;
7563;SDS011;3823;53.586;10.040;2023-04-24T18:34:52;4.70;;;3.70;;
7563;SDS011;3823;53.586;10.040;2023-04-24T18:37:17;7.65;;;4.82;;
7563;SDS011;3823;53.586;10.040;2023-04-24T18:39:43;9.70;;;4.57;;
7563;SDS011;3823;53.586;10.040;2023-04-24T18:42:08;12.27;;;4.40;;
7563;SDS011;3823;53.586;10.040;2023-04-24T18:44:34;4.45;;;3.70;;
7563;SDS011;3823;53.586;10.040;2023-04-24T18:47:04;11.25;;;3.90;;
7563;SDS011;3823;53.586;10.040;2023-04-24T18:49:30;4.18;;;3.13;;
7563;SDS011;3823;53.586;10.040;2023-04-24T18:51:56;4.18;;;2.80;;
7563;SDS011;3823;53.586;10.040;2023-04-24T18:54:21;10.02;;;3.42;;
7563;SDS011;3823;53.586;10.040;2023-04-24T18:56:47;6.40;;;3.47;;
7563;SDS011;3823;53.586;10.040;2023-04-24T18:59:12;3.17;;;2.47;;
7563;SDS011;3823;53.586;10.040;2023-04-24T19:01:38;3.05;;;2.83;;
7563;SDS011;3823;53.586;10.040;2023-04-24T19:04:03;3.92;;;2.25;;
7563;SDS011;3823;53.586;10.040;2023-04-24T19:06:29;3.92;;;2.55;;
7563;SDS011;3823;53.586;10.040;2023-04-24T19:08:55;2.60;;;2.40;;
7563;SDS011;3823;53.586;10.040;2023-04-24T19:11:21;5.78;;;2.78;;
7563;SDS011;3823;53.586;10.040;2023-04-24T19:13:46;2.55;;;1.80;;